Time;durP1;ratioP1;P1;durP2;ratioP2;P2;SDS_P1;SDS_P2;PMS_P1;PMS_P2;Temp;Humidity;BMP_temperature;BMP_pressure;BME280_temperature;BME280_humidity;BME280_pressure;Samples;Min_cycle;Max_cycle;Signal;HPM_P1;HPM_P2
2022/12/09 00:50:40;;;;;;;35.10;10.63;;;;;;;11.40;75.09;99091.81;5671580;25;20665;-92
2022/12/09 00:53:37;;;;;;;;;;;;;;;;;;;;;
2022/12/09 00:57:02;;;;;;;;;;;;;;;;;;;;;
2022/12/09 01:00:27;;;;;;;;;;;;;;;;;;;;;
2022/12/09 01:04:07;;;;;;;;;;;;;;;;;;;;;
2022/12/09 01:14:04;;;;;;;;;;;;;;;;;;;;;
2022/12/09 01:17:08;;;;;;;;;;;;;;;;;;;;;
2022/12/09 01:24:20;;;;;;;;;;;;;;;;;;;;;
2022/12/09 02:08:12;;;;;;;;;;;;;;;;;;;;;
2022/12/09 02:15:05;;;;;;;;;;;;;;;;;;;;;
2022/12/09 02:35:49;;;;;;;;;;;;;;;;;;;;;
2022/12/09 02:45:20;;;;;;;;;;;;;;;;;;;;;
2022/12/09 02:48:15;;;;;;;27.47;7.63;;;;;;;11.18;77.83;99067.72;6184129;23;20234;-92
2022/12/09 02:51:30;;;;;;;;;;;;;;;;;;;;;
2022/12/09 02:54:44;;;;;;;24.87;8.47;;;;;;;11.37;77.09;99072.78;6096993;23;20251;-92
2022/12/09 02:57:39;;;;;;;20.03;7.80;;;;;;;11.41;77.19;99069.91;6117826;23;20660;-91
2022/12/09 03:03:48;;;;;;;19.80;7.70;;;;;;;11.39;76.96;99071.78;6187757;23;20575;-92
2022/12/09 03:06:48;;;;;;;;;;;;;;;;;;;;;
2022/12/09 03:13:11;;;;;;;;;;;;;;;;;;;;;
2022/12/09 03:16:41;;;;;;;;;;;;;;;;;;;;;
2022/12/09 03:23:44;;;;;;;;;;;;;;;;;;;;;
2022/12/09 03:30:46;;;;;;;;;;;;;;;;;;;;;
2022/12/09 03:37:47;;;;;;;;;;;;;;;;;;;;;
2022/12/09 03:40:48;;;;;;;24.03;8.03;;;;;;;11.76;75.15;99090.69;5868100;24;20607;-93
2022/12/09 03:43:58;;;;;;;;;;;;;;;;;;;;;
2022/12/09 03:47:04;;;;;;;27.30;8.90;;;;;;;11.78;75.36;99087.03;5921802;24;20259;-91
2022/12/09 03:53:41;;;;;;;;;;;;;;;;;;;;;
2022/12/09 03:57:18;;;;;;;;;;;;;;;;;;;;;
2022/12/09 04:00:29;;;;;;;;;;;;;;;;;;;;;
2022/12/09 04:03:33;;;;;;;;;;;;;;;;;;;;;
2022/12/09 04:06:20;;;;;;;;;;;;;;;;;;;;;
2022/12/09 04:12:46;;;;;;;;;;;;;;;;;;;;;
2022/12/09 04:15:52;;;;;;;;;;;;;;;;;;;;;
2022/12/09 04:26:03;;;;;;;;;;;;;;;;;;;;;
2022/12/09 04:29:05;;;;;;;;;;;;;;;;;;;;;
2022/12/09 04:35:15;;;;;;;18.10;6.67;;;;;;;11.62;74.39;99088.81;5981487;24;20159;-91
2022/12/09 04:38:12;;;;;;;;;;;;;;;;;;;;;
2022/12/09 04:44:13;;;;;;;;;;;;;;;;;;;;;
2022/12/09 04:47:08;;;;;;;;;;;;;;;;;;;;;
2022/12/09 04:49:40;;;;;;;16.30;6.53;;;;;;;11.35;75.89;99069.38;6010734;23;20512;-92
2022/12/09 04:52:43;;;;;;;;;;;;;;;;;;;;;
2022/12/09 04:55:48;;;;;;;27.90;10.60;;;;;;;11.26;76.62;99068.16;6010474;23;20240;-93
2022/12/09 04:58:58;;;;;;;;;;;;;;;;;;;;;
2022/12/09 05:02:05;;;;;;;;;;;;;;;;;;;;;
2022/12/09 05:05:04;;;;;;;;;;;;;;;;;;;;;
2022/12/09 05:15:16;;;;;;;;;;;;;;;;;;;;;
2022/12/09 05:21:57;;;;;;;;;;;;;;;;;;;;;
2022/12/09 05:25:10;;;;;;;;;;;;;;;;;;;;;
2022/12/09 05:28:29;;;;;;;;;;;;;;;;;;;;;
2022/12/09 05:37:19;;;;;;;;;;;;;;;;;;;;;
2022/12/09 05:44:25;;;;;;;;;;;;;;;;;;;;;
2022/12/09 06:07:12;;;;;;;20.50;6.33;;;;;;;11.76;74.95;99122.19;6165292;23;20155;-92
2022/12/09 06:14:30;;;;;;;;;;;;;;;;;;;;;
2022/12/09 07:04:16;;;;;;;;;;;;;;;;;;;;;
2022/12/09 07:08:05;;;;;;;;;;;;;;;;;;;;;
2022/12/09 07:11:03;;;;;;;;;;;;;;;;;;;;;
2022/12/09 08:01:22;;;;;;;;;;;;;;;;;;;;;
2022/12/09 18:01:21;;;;;;;;;;;;;;;;;;;;;
2022/12/09 18:11:14;;;;;;;27.07;9.97;;;;;;;12.89;81.56;98742.59;5600261;25;20172;-94
2022/12/09 18:15:06;;;;;;;;;;;;;;;;;;;;;
2022/12/09 18:18:00;;;;;;;;;;;;;;;;;;;;;
2022/12/09 18:20:49;;;;;;;22.00;5.60;;;;;;;13.55;94.52;98728.38;5614505;25;20284;-93
2022/12/09 18:45:34;;;;;;;15.87;4.07;;;;;;;15.64;81.50;98709.84;6076707;23;20163;-92
2022/12/09 19:00:34;;;;;;;;;;;;;;;;;;;;;
2022/12/09 19:07:33;;;;;;;42.20;12.53;;;;;;;15.87;75.86;98722.91;5757084;24;20285;-92
2022/12/09 19:20:40;;;;;;;;;;;;;;;;;;;;;
2022/12/09 19:27:26;;;;;;;;;;;;;;;;;;;;;
2022/12/09 19:30:43;;;;;;;;;;;;;;;;;;;;;
2022/12/09 19:43:05;;;;;;;;;;;;;;;;;;;;;
2022/12/09 19:46:03;;;;;;;31.80;10.80;;;;;;;15.22;72.35;98732.53;6011017;23;20722;-92
2022/12/09 19:52:35;;;;;;;;;;;;;;;;;;;;;
2022/12/09 19:55:06;;;;;;;34.43;11.30;;;;;;;14.79;71.25;98740.25;6011185;23;20228;-92
2022/12/09 19:57:39;;;;;;;28.77;9.80;;;;;;;14.73;71.23;98738.94;6010656;23;20159;-91
2022/12/09 20:00:12;;;;;;;33.67;9.97;;;;;;;14.55;71.83;98742.09;6010992;23;20471;-92
2022/12/09 20:03:18;;;;;;;38.27;10.23;;;;;;;14.51;71.74;98740.66;6020546;23;20158;-91
2022/12/09 20:05:49;;;;;;;33.60;11.77;;;;;;;14.21;72.00;98745.53;6042841;23;20247;-92
2022/12/09 20:08:14;;;;;;;25.27;10.30;;;;;;;13.89;72.36;98743.44;6069470;23;20154;-90
2022/12/09 20:10:45;;;;;;;30.37;10.10;;;;;;;13.50;73.83;98735.75;6044069;23;20240;-91
2022/12/09 20:13:12;;;;;;;26.60;9.27;;;;;;;13.43;74.42;98745.88;6044045;23;20276;-91
2022/12/09 20:15:38;;;;;;;21.50;9.93;;;;;;;13.03;76.26;98748.72;6043932;23;20228;-91
2022/12/09 20:18:04;;;;;;;34.93;10.80;;;;;;;12.76;77.46;98749.63;6069010;23;20523;-90
2022/12/09 20:20:31;;;;;;;28.17;10.10;;;;;;;12.53;78.81;98744.25;6043976;23;20163;-90
2022/12/09 20:22:56;;;;;;;27.53;8.27;;;;;;;12.35;79.97;98746.31;6043837;23;20167;-90
2022/12/09 20:25:22;;;;;;;21.07;9.33;;;;;;;12.22;81.04;98745.44;6043778;23;20265;-90
2022/12/09 20:27:50;;;;;;;22.60;8.43;;;;;;;12.22;80.05;98732.28;6069570;23;20150;-90
2022/12/09 20:30:16;;;;;;;26.57;10.03;;;;;;;12.19;81.10;98743.00;6068954;23;20156;-90
2022/12/09 20:32:42;;;;;;;35.93;9.07;;;;;;;12.20;80.34;98737.66;6068870;23;20585;-90
2022/12/09 20:35:08;;;;;;;26.03;10.63;;;;;;;12.25;80.35;98730.31;6044034;23;20490;-90
2022/12/09 20:37:34;;;;;;;67.30;11.07;;;;;;;12.13;81.12;98748.66;6056692;23;20172;-91
2022/12/09 20:40:00;;;;;;;43.80;9.87;;;;;;;12.10;81.38;98738.34;6097812;23;20161;-90
2022/12/09 20:42:26;;;;;;;76.87;11.07;;;;;;;12.16;81.55;98744.03;6097852;23;20228;-90
2022/12/09 20:44:51;;;;;;;47.33;9.43;;;;;;;12.18;81.28;98726.41;6097355;23;20164;-90
2022/12/09 20:47:16;;;;;;;51.83;8.83;;;;;;;12.13;81.16;98727.66;6097460;23;20149;-90
2022/12/09 20:49:42;;;;;;;30.87;7.67;;;;;;;12.13;80.76;98723.22;6097092;23;20153;-90
2022/12/09 20:52:07;;;;;;;15.23;5.70;;;;;;;11.91;81.66;98732.59;6072244;23;20157;-90
2022/12/09 20:54:33;;;;;;;27.97;7.40;;;;;;;11.68;83.08;98720.91;6097787;23;20149;-90
2022/12/09 20:56:59;;;;;;;13.00;5.70;;;;;;;11.61;83.35;98714.34;6097366;23;20169;-90
2022/12/09 20:59:24;;;;;;;30.20;6.97;;;;;;;11.60;83.37;98716.16;6097682;23;20164;-91
2022/12/09 21:01:50;;;;;;;20.47;5.80;;;;;;;11.70;82.94;98709.41;6072143;23;20457;-90
2022/12/09 21:04:18;;;;;;;50.30;7.20;;;;;;;11.24;85.60;98705.31;6072117;23;20267;-90
2022/12/09 21:06:44;;;;;;;44.00;8.47;;;;;;;11.28;86.11;98703.34;6072023;23;20192;-91
2022/12/09 21:09:13;;;;;;;33.43;9.07;;;;;;;11.65;84.36;98690.44;6097550;23;20161;-91
2022/12/09 21:11:39;;;;;;;59.77;18.23;;;;;;;11.75;83.94;98693.34;6072578;23;20161;-91
2022/12/09 21:14:05;;;;;;;39.83;8.80;;;;;;;11.98;83.43;98697.09;6072015;23;20602;-91
2022/12/09 21:16:34;;;;;;;56.43;9.07;;;;;;;12.04;82.93;98694.09;6097705;23;20216;-90
2022/12/09 21:19:04;;;;;;;56.53;7.47;;;;;;;12.14;82.08;98692.53;6097189;23;20214;-91
2022/12/09 21:21:31;;;;;;;59.70;8.27;;;;;;;12.19;81.95;98682.56;6072804;23;20485;-91
2022/12/09 21:23:58;;;;;;;54.73;5.80;;;;;;;12.31;81.66;98679.13;6097470;23;20169;-91
2022/12/09 21:26:25;;;;;;;22.70;6.80;;;;;;;12.34;79.93;98686.81;6097103;23;20187;-91
2022/12/09 21:28:51;;;;;;;56.63;7.53;;;;;;;12.33;79.29;98696.50;6097742;23;20172;-91
2022/12/09 21:31:25;;;;;;;21.50;6.00;;;;;;;12.25;78.90;98700.56;6097117;23;20196;-91
2022/12/09 21:33:53;;;;;;;29.83;6.90;;;;;;;12.13;79.79;98689.06;6072087;23;20549;-91
2022/12/09 21:36:23;;;;;;;62.97;6.97;;;;;;;12.10;80.30;98691.06;6097032;23;20553;-91
2022/12/09 21:38:49;;;;;;;43.53;7.73;;;;;;;12.04;80.53;98686.22;6096961;23;20166;-91
2022/12/09 21:41:18;;;;;;;53.90;8.83;;;;;;;12.12;80.04;98678.66;6071914;23;20163;-92
2022/12/09 21:43:44;;;;;;;41.00;7.43;;;;;;;12.14;80.32;98666.25;6071943;23;20173;-91
2022/12/09 21:46:16;;;;;;;30.03;7.83;;;;;;;12.22;80.13;98670.06;6071858;23;20222;-91
2022/12/09 21:48:41;;;;;;;30.17;7.70;;;;;;;12.31;80.08;98668.63;6071943;23;20150;-91
2022/12/09 21:51:09;;;;;;;44.33;8.13;;;;;;;12.42;79.56;98671.34;6072507;23;20485;-91
2022/12/09 21:53:35;;;;;;;32.07;7.47;;;;;;;12.52;79.08;98661.94;6071880;23;20159;-91
2022/12/09 21:56:13;;;;;;;43.40;8.10;;;;;;;12.57;78.94;98661.59;6096161;23;20156;-91
2022/12/09 21:58:38;;;;;;;20.37;5.80;;;;;;;12.57;78.74;98662.44;6072550;23;20474;-91
2022/12/09 22:01:10;;;;;;;33.20;7.87;;;;;;;12.58;78.32;98660.66;6096896;23;20214;-91
2022/12/09 22:03:36;;;;;;;38.27;7.87;;;;;;;12.52;78.47;98654.03;6072291;23;20225;-92
2022/12/09 22:06:02;;;;;;;54.43;12.23;;;;;;;12.40;78.19;98651.38;6072710;23;20649;-92
2022/12/09 22:08:27;;;;;;;30.13;7.50;;;;;;;12.30;78.50;98645.91;6071806;23;20158;-91
2022/12/09 22:10:53;;;;;;;23.60;7.83;;;;;;;12.33;78.69;98651.81;6097284;23;20224;-91
2022/12/09 22:13:19;;;;;;;27.50;9.47;;;;;;;12.39;78.47;98655.81;6071770;23;20173;-91
2022/12/09 22:15:45;;;;;;;54.53;8.23;;;;;;;12.42;78.21;98655.59;6096961;23;20486;-92
2022/12/09 22:18:10;;;;;;;32.67;8.10;;;;;;;12.45;78.10;98655.38;6071742;23;20170;-91
2022/12/09 22:20:36;;;;;;;33.07;8.87;;;;;;;12.55;77.95;98651.19;6096826;23;20180;-90
2022/12/09 22:23:01;;;;;;;27.00;8.93;;;;;;;12.58;77.85;98647.53;6097443;23;20162;-91
2022/12/09 22:25:27;;;;;;;24.03;8.30;;;;;;;12.51;77.34;98648.88;6072024;23;20582;-92
2022/12/09 22:27:52;;;;;;;43.53;10.40;;;;;;;12.44;77.33;98640.56;6096384;23;20156;-92
2022/12/09 22:30:18;;;;;;;27.57;9.10;;;;;;;12.47;77.30;98643.00;6097294;23;20559;-92
2022/12/09 22:32:43;;;;;;;37.87;9.00;;;;;;;12.52;77.39;98638.28;6071651;23;20164;-91
2022/12/09 22:35:09;;;;;;;30.93;10.23;;;;;;;12.54;77.15;98646.03;6071691;23;20156;-92
2022/12/09 22:37:35;;;;;;;21.33;7.80;;;;;;;12.58;76.64;98639.63;6071694;23;20178;-91
2022/12/09 22:40:00;;;;;;;16.40;7.93;;;;;;;12.60;76.79;98638.59;6071991;23;20216;-91
2022/12/09 22:42:28;;;;;;;19.53;7.73;;;;;;;12.58;77.05;98640.47;6071883;23;20160;-92
2022/12/09 22:44:53;;;;;;;18.80;8.30;;;;;;;12.59;76.65;98642.16;6071596;23;20245;-91
2022/12/09 22:47:19;;;;;;;17.73;6.77;;;;;;;12.57;76.42;98644.06;6096822;23;20642;-91
2022/12/09 22:49:45;;;;;;;26.97;9.03;;;;;;;12.50;75.86;98655.91;6096766;23;20156;-90
2022/12/09 22:52:11;;;;;;;19.43;8.33;;;;;;;12.40;75.36;98644.34;6096806;23;20155;-91
2022/12/09 22:54:36;;;;;;;18.73;8.60;;;;;;;12.33;75.92;98638.66;6072142;23;20236;-91
2022/12/09 22:57:02;;;;;;;22.40;8.30;;;;;;;12.31;76.57;98635.31;6071542;23;20155;-91
2022/12/09 22:59:28;;;;;;;17.33;7.57;;;;;;;12.39;76.66;98642.69;6096786;23;20174;-92
2022/12/09 23:01:53;;;;;;;18.63;7.97;;;;;;;12.47;76.74;98632.50;6071460;23;20167;-91
2022/12/09 23:04:22;;;;;;;22.33;7.47;;;;;;;12.48;75.49;98633.31;6097352;23;20190;-91
2022/12/09 23:06:49;;;;;;;21.43;9.17;;;;;;;12.50;75.93;98637.50;6071436;23;20195;-91
2022/12/09 23:09:20;;;;;;;21.77;9.30;;;;;;;12.49;75.48;98635.84;6071460;23;20156;-91
2022/12/09 23:11:47;;;;;;;26.20;9.87;;;;;;;12.39;76.12;98626.91;6097579;23;20474;-91
2022/12/09 23:14:13;;;;;;;22.60;9.27;;;;;;;12.41;76.05;98619.75;6098508;23;20154;-91
2022/12/09 23:16:38;;;;;;;22.90;8.77;;;;;;;12.31;76.24;98622.19;6098416;23;20149;-91
2022/12/09 23:19:04;;;;;;;22.93;8.73;;;;;;;12.34;76.38;98607.97;6073402;23;20489;-91
2022/12/09 23:21:32;;;;;;;21.23;8.23;;;;;;;12.39;76.53;98605.88;6073688;23;20159;-91
2022/12/09 23:24:00;;;;;;;19.83;8.10;;;;;;;12.34;76.70;98598.28;6098541;23;20157;-91
2022/12/09 23:26:28;;;;;;;22.70;9.80;;;;;;;12.41;76.73;98593.47;6098900;23;20190;-92
2022/12/09 23:28:55;;;;;;;26.43;8.27;;;;;;;12.46;76.29;98586.09;6098953;23;20160;-91
2022/12/09 23:31:24;;;;;;;25.47;9.37;;;;;;;12.52;76.44;98582.22;6073158;23;20157;-91
2022/12/09 23:33:51;;;;;;;20.03;7.60;;;;;;;12.52;76.30;98588.31;6098400;23;20478;-92
2022/12/09 23:36:25;;;;;;;26.60;10.37;;;;;;;12.55;76.13;98597.78;6073050;23;20343;-91
2022/12/09 23:38:52;;;;;;;22.83;8.73;;;;;;;12.58;75.32;98595.75;6073364;23;20174;-91
2022/12/09 23:41:20;;;;;;;27.90;8.87;;;;;;;12.48;75.63;98592.09;6074121;23;20221;-91
2022/12/09 23:43:47;;;;;;;31.27;10.03;;;;;;;12.38;75.92;98591.03;6098890;23;20211;-91
2022/12/09 23:46:16;;;;;;;35.10;9.37;;;;;;;12.42;76.27;98589.88;6073029;23;20189;-91
2022/12/09 23:48:43;;;;;;;19.70;8.63;;;;;;;12.40;75.84;98588.31;6098554;23;20152;-91
2022/12/09 23:51:12;;;;;;;22.70;9.30;;;;;;;12.42;75.34;98591.69;6073075;23;20163;-91
2022/12/09 23:53:38;;;;;;;28.13;10.00;;;;;;;12.44;75.38;98587.16;6073291;23;20158;-91
2022/12/09 23:56:05;;;;;;;26.43;10.03;;;;;;;12.41;74.92;98587.38;6073015;23;20197;-91
2022/12/09 23:58:31;;;;;;;32.73;10.50;;;;;;;12.38;75.12;98591.03;6098522;23;20150;-91
